首页
METAR-TAF:

METAR-TAF

机场 :

Evanston-Uinta County Airport (Burns Field)

Evanston, 怀俄明州, 美国

纬度: 41-16-23N, 经度: 111-01-50W, 海拔: 2183米

当前天气观测

该预报发布于15分钟前的23:53 UTC
风速16节,风向西,有时为21节阵风
温度 28°C
湿度 22%
气压 1022 hPa
能見度: 16.1公里
天空无云

METAR: KEVW 122353Z AUTO 27016G21KT 10SM CLR 28/04 A3018 RMK AO2 PK WND 24034/2259 SLP114 T02780044 10294 20261 58006

时间: 18:08 (00:08 UTC)

预报

该预报发布于48分钟前的23:20 UTC
预报有效从13日的 00点(UTC)到 13日的 24点(UTC)
风速18节,风向西,有时为28节阵风
能見度: 10公里
少量云层高于15000英尺
从 13日的 0300点(UTC)
风速6节,风向
能見度: 10公里
散云层高于12000英尺
从 13日的 1600点(UTC)
风速10节,风向西转西南
能見度: 10公里
天空无云
从 13日的 1800点(UTC)
风速18节,风向西转西南,有时为28节阵风
能見度: 10公里
天空无云

TAF: KEVW 122320Z 1300/1324 26018G28KT P6SM FEW150 FM130300 18006KT P6SM SCT120 FM131600 24010KT P6SM SKC FM131800 24018G28KT P6SM SKC

超过4000个机场的气象观测和天气预报(METAR&TAF报告)。

可查询的气象台以黄色和红色小点在地图上表示。

将鼠标移到小点上方,可查看气象台名称。

然后点击查看天气观测和预报。

如需切换地图:点击带黑十字的绿色按钮放大地图;点击带横线的绿色按钮缩小地图;或者点击绿色箭头查看邻近地区的地图。


METAR-TAF: